sensor_id;sensor_type;location;lat;lon;timestamp;P1;durP1;ratioP1;P2;durP2;ratioP2
34403;SDS011;23116;47.660;9.126;2023-04-06T00:02:04;5.68;;;3.85;;
34403;SDS011;23116;47.660;9.126;2023-04-06T00:04:31;4.53;;;3.83;;
34403;SDS011;23116;47.660;9.126;2023-04-06T00:06:59;4.43;;;3.88;;
34403;SDS011;23116;47.660;9.126;2023-04-06T00:09:26;3.97;;;3.55;;
34403;SDS011;23116;47.660;9.126;2023-04-06T00:11:53;5.13;;;3.90;;
34403;SDS011;23116;47.660;9.126;2023-04-06T00:14:21;4.50;;;3.95;;
34403;SDS011;23116;47.660;9.126;2023-04-06T00:16:48;5.00;;;4.50;;
34403;SDS011;23116;47.660;9.126;2023-04-06T00:19:15;5.88;;;4.68;;
34403;SDS011;23116;47.660;9.126;2023-04-06T00:21:42;5.00;;;4.50;;
34403;SDS011;23116;47.660;9.126;2023-04-06T00:24:10;5.68;;;5.10;;
34403;SDS011;23116;47.660;9.126;2023-04-06T00:26:37;4.68;;;4.03;;
34403;SDS011;23116;47.660;9.126;2023-04-06T00:29:04;4.43;;;4.03;;
34403;SDS011;23116;47.660;9.126;2023-04-06T00:31:32;5.70;;;3.92;;
34403;SDS011;23116;47.660;9.126;2023-04-06T00:33:59;6.25;;;4.07;;
34403;SDS011;23116;47.660;9.126;2023-04-06T00:36:26;4.25;;;3.72;;
34403;SDS011;23116;47.660;9.126;2023-04-06T00:38:53;3.90;;;3.50;;
34403;SDS011;23116;47.660;9.126;2023-04-06T00:41:21;4.28;;;3.17;;
34403;SDS011;23116;47.660;9.126;2023-04-06T00:43:48;4.20;;;3.53;;
34403;SDS011;23116;47.660;9.126;2023-04-06T00:46:15;4.18;;;3.60;;
34403;SDS011;23116;47.660;9.126;2023-04-06T00:48:42;3.83;;;3.45;;
34403;SDS011;23116;47.660;9.126;2023-04-06T00:51:09;3.90;;;3.42;;
34403;SDS011;23116;47.660;9.126;2023-04-06T00:58:50;3.92;;;3.53;;
34403;SDS011;23116;47.660;9.126;2023-04-06T01:01:17;5.35;;;3.70;;
34403;SDS011;23116;47.660;9.126;2023-04-06T01:03:48;3.97;;;3.30;;
34403;SDS011;23116;47.660;9.126;2023-04-06T01:06:15;5.13;;;4.35;;
34403;SDS011;23116;47.660;9.126;2023-04-06T01:08:43;4.43;;;3.65;;
34403;SDS011;23116;47.660;9.126;2023-04-06T01:11:10;3.33;;;3.00;;
34403;SDS011;23116;47.660;9.126;2023-04-06T01:13:37;4.50;;;4.07;;
34403;SDS011;23116;47.660;9.126;2023-04-06T01:16:04;5.88;;;4.20;;
34403;SDS011;23116;47.660;9.126;2023-04-06T01:18:32;5.40;;;4.57;;
34403;SDS011;23116;47.660;9.126;2023-04-06T01:20:59;5.78;;;5.10;;
34403;SDS011;23116;47.660;9.126;2023-04-06T01:23:29;4.75;;;4.30;;
34403;SDS011;23116;47.660;9.126;2023-04-06T01:25:56;4.68;;;4.20;;
34403;SDS011;23116;47.660;9.126;2023-04-06T01:28:23;5.00;;;4.18;;
34403;SDS011;23116;47.660;9.126;2023-04-06T01:30:50;4.65;;;3.72;;
34403;SDS011;23116;47.660;9.126;2023-04-06T01:33:17;4.63;;;3.85;;
34403;SDS011;23116;47.660;9.126;2023-04-06T01:35:47;3.25;;;2.95;;
34403;SDS011;23116;47.660;9.126;2023-04-06T01:38:14;4.63;;;3.70;;
34403;SDS011;23116;47.660;9.126;2023-04-06T01:40:41;5.15;;;4.22;;
34403;SDS011;23116;47.660;9.126;2023-04-06T01:43:08;4.25;;;3.83;;
34403;SDS011;23116;47.660;9.126;2023-04-06T01:45:35;5.00;;;3.47;;
34403;SDS011;23116;47.660;9.126;2023-04-06T01:48:03;3.38;;;2.95;;
34403;SDS011;23116;47.660;9.126;2023-04-06T01:50:32;4.00;;;3.60;;
34403;SDS011;23116;47.660;9.126;2023-04-06T01:52:59;6.70;;;4.45;;
34403;SDS011;23116;47.660;9.126;2023-04-06T01:55:26;5.68;;;4.65;;
34403;SDS011;23116;47.660;9.126;2023-04-06T01:57:54;5.35;;;4.57;;
34403;SDS011;23116;47.660;9.126;2023-04-06T02:00:21;5.03;;;4.53;;
34403;SDS011;23116;47.660;9.126;2023-04-06T02:02:48;5.40;;;4.47;;
34403;SDS011;23116;47.660;9.126;2023-04-06T02:05:15;5.43;;;4.82;;
34403;SDS011;23116;47.660;9.126;2023-04-06T02:07:42;5.82;;;4.38;;
34403;SDS011;23116;47.660;9.126;2023-04-06T02:10:13;6.85;;;5.07;;
34403;SDS011;23116;47.660;9.126;2023-04-06T02:12:40;4.97;;;4.47;;
34403;SDS011;23116;47.660;9.126;2023-04-06T02:15:08;4.65;;;4.25;;
34403;SDS011;23116;47.660;9.126;2023-04-06T02:17:35;6.82;;;4.88;;
34403;SDS011;23116;47.660;9.126;2023-04-06T02:20:02;4.07;;;3.67;;
34403;SDS011;23116;47.660;9.126;2023-04-06T02:22:30;3.88;;;3.30;;
34403;SDS011;23116;47.660;9.126;2023-04-06T02:24:57;4.43;;;4.03;;
34403;SDS011;23116;47.660;9.126;2023-04-06T02:27:25;4.82;;;4.30;;
34403;SDS011;23116;47.660;9.126;2023-04-06T02:29:52;5.03;;;4.25;;
34403;SDS011;23116;47.660;9.126;2023-04-06T02:32:22;4.70;;;3.90;;
34403;SDS011;23116;47.660;9.126;2023-04-06T02:34:50;4.00;;;3.60;;
34403;SDS011;23116;47.660;9.126;2023-04-06T02:37:17;4.65;;;3.38;;
34403;SDS011;23116;47.660;9.126;2023-04-06T02:39:45;3.60;;;3.08;;
34403;SDS011;23116;47.660;9.126;2023-04-06T02:42:12;3.95;;;3.30;;
34403;SDS011;23116;47.660;9.126;2023-04-06T02:44:41;3.53;;;3.22;;
34403;SDS011;23116;47.660;9.126;2023-04-06T02:47:08;5.38;;;3.90;;
34403;SDS011;23116;47.660;9.126;2023-04-06T02:49:36;4.45;;;4.05;;
34403;SDS011;23116;47.660;9.126;2023-04-06T02:52:03;4.28;;;3.47;;
34403;SDS011;23116;47.660;9.126;2023-04-06T02:54:30;4.88;;;4.05;;
34403;SDS011;23116;47.660;9.126;2023-04-06T02:56:57;3.95;;;3.55;;
34403;SDS011;23116;47.660;9.126;2023-04-06T02:59:25;3.53;;;3.22;;
34403;SDS011;23116;47.660;9.126;2023-04-06T03:30:36;5.00;;;4.50;;
34403;SDS011;23116;47.660;9.126;2023-04-06T03:33:03;5.97;;;4.90;;
34403;SDS011;23116;47.660;9.126;2023-04-06T03:35:30;5.63;;;4.95;;
34403;SDS011;23116;47.660;9.126;2023-04-06T03:37:57;4.75;;;4.35;;
34403;SDS011;23116;47.660;9.126;2023-04-06T03:40:25;4.70;;;3.92;;
34403;SDS011;23116;47.660;9.126;2023-04-06T03:42:52;4.30;;;3.90;;
34403;SDS011;23116;47.660;9.126;2023-04-06T03:45:19;4.57;;;4.18;;
34403;SDS011;23116;47.660;9.126;2023-04-06T03:47:46;3.17;;;2.72;;
34403;SDS011;23116;47.660;9.126;2023-04-06T03:50:14;4.20;;;3.60;;
34403;SDS011;23116;47.660;9.126;2023-04-06T03:52:41;4.22;;;3.83;;
34403;SDS011;23116;47.660;9.126;2023-04-06T03:55:08;4.50;;;3.80;;
34403;SDS011;23116;47.660;9.126;2023-04-06T03:57:35;4.95;;;4.43;;
34403;SDS011;23116;47.660;9.126;2023-04-06T04:15:42;6.20;;;4.63;;
34403;SDS011;23116;47.660;9.126;2023-04-06T04:18:10;5.32;;;4.82;;
34403;SDS011;23116;47.660;9.126;2023-04-06T04:20:37;5.65;;;4.90;;
34403;SDS011;23116;47.660;9.126;2023-04-06T04:23:04;4.70;;;4.18;;
34403;SDS011;23116;47.660;9.126;2023-04-06T04:25:31;6.15;;;5.22;;
34403;SDS011;23116;47.660;9.126;2023-04-06T04:27:58;5.15;;;4.45;;
34403;SDS011;23116;47.660;9.126;2023-04-06T04:30:25;7.35;;;6.15;;
34403;SDS011;23116;47.660;9.126;2023-04-06T04:35:23;6.68;;;5.20;;
34403;SDS011;23116;47.660;9.126;2023-04-06T04:37:50;5.00;;;4.47;;
34403;SDS011;23116;47.660;9.126;2023-04-06T04:40:17;5.38;;;4.55;;
34403;SDS011;23116;47.660;9.126;2023-04-06T04:42:45;5.68;;;4.80;;
34403;SDS011;23116;47.660;9.126;2023-04-06T04:45:12;5.45;;;4.60;;
34403;SDS011;23116;47.660;9.126;2023-04-06T04:47:39;7.82;;;5.53;;
34403;SDS011;23116;47.660;9.126;2023-04-06T04:50:07;7.15;;;4.78;;
34403;SDS011;23116;47.660;9.126;2023-04-06T04:52:34;6.32;;;4.55;;
34403;SDS011;23116;47.660;9.126;2023-04-06T04:55:03;6.07;;;4.75;;
34403;SDS011;23116;47.660;9.126;2023-04-06T04:57:31;4.90;;;4.35;;
34403;SDS011;23116;47.660;9.126;2023-04-06T04:59:58;4.72;;;4.03;;
34403;SDS011;23116;47.660;9.126;2023-04-06T05:02:26;4.72;;;4.20;;
34403;SDS011;23116;47.660;9.126;2023-04-06T05:04:53;4.93;;;3.75;;
34403;SDS011;23116;47.660;9.126;2023-04-06T05:07:20;5.68;;;4.40;;
34403;SDS011;23116;47.660;9.126;2023-04-06T05:09:48;6.43;;;4.95;;
34403;SDS011;23116;47.660;9.126;2023-04-06T05:12:15;6.82;;;5.07;;
34403;SDS011;23116;47.660;9.126;2023-04-06T05:14:42;5.80;;;5.20;;
34403;SDS011;23116;47.660;9.126;2023-04-06T05:17:10;6.10;;;5.40;;
34403;SDS011;23116;47.660;9.126;2023-04-06T05:19:37;7.45;;;5.65;;
34403;SDS011;23116;47.660;9.126;2023-04-06T05:22:04;7.35;;;5.65;;
34403;SDS011;23116;47.660;9.126;2023-04-06T05:24:31;6.78;;;5.18;;
34403;SDS011;23116;47.660;9.126;2023-04-06T05:27:00;6.57;;;4.93;;
34403;SDS011;23116;47.660;9.126;2023-04-06T05:29:27;7.15;;;4.53;;
34403;SDS011;23116;47.660;9.126;2023-04-06T05:31:55;5.47;;;4.70;;
34403;SDS011;23116;47.660;9.126;2023-04-06T05:34:22;5.60;;;4.60;;
34403;SDS011;23116;47.660;9.126;2023-04-06T05:36:49;4.18;;;3.78;;
34403;SDS011;23116;47.660;9.126;2023-04-06T05:39:17;6.13;;;4.72;;
34403;SDS011;23116;47.660;9.126;2023-04-06T05:41:44;5.25;;;4.55;;
34403;SDS011;23116;47.660;9.126;2023-04-06T05:44:11;4.30;;;3.83;;
34403;SDS011;23116;47.660;9.126;2023-04-06T05:46:38;4.72;;;3.88;;
34403;SDS011;23116;47.660;9.126;2023-04-06T05:49:05;4.03;;;3.60;;
34403;SDS011;23116;47.660;9.126;2023-04-06T05:51:32;5.50;;;3.75;;
34403;SDS011;23116;47.660;9.126;2023-04-06T05:54:00;5.97;;;4.25;;
34403;SDS011;23116;47.660;9.126;2023-04-06T05:56:27;4.05;;;3.35;;
34403;SDS011;23116;47.660;9.126;2023-04-06T05:58:55;5.35;;;3.90;;
34403;SDS011;23116;47.660;9.126;2023-04-06T06:01:22;14.40;;;5.47;;
34403;SDS011;23116;47.660;9.126;2023-04-06T06:03:50;9.55;;;5.03;;
34403;SDS011;23116;47.660;9.126;2023-04-06T06:06:17;6.88;;;4.38;;
34403;SDS011;23116;47.660;9.126;2023-04-06T06:08:47;5.18;;;4.30;;
34403;SDS011;23116;47.660;9.126;2023-04-06T06:11:16;4.72;;;4.22;;
34403;SDS011;23116;47.660;9.126;2023-04-06T06:13:43;4.30;;;3.90;;
34403;SDS011;23116;47.660;9.126;2023-04-06T06:16:11;4.03;;;3.58;;
34403;SDS011;23116;47.660;9.126;2023-04-06T06:18:47;4.15;;;3.53;;
34403;SDS011;23116;47.660;9.126;2023-04-06T06:21:15;3.88;;;3.47;;
34403;SDS011;23116;47.660;9.126;2023-04-06T06:23:42;6.18;;;4.55;;
34403;SDS011;23116;47.660;9.126;2023-04-06T06:26:15;5.53;;;4.22;;
34403;SDS011;23116;47.660;9.126;2023-04-06T06:31:28;5.47;;;4.43;;
34403;SDS011;23116;47.660;9.126;2023-04-06T06:34:04;4.53;;;4.07;;
34403;SDS011;23116;47.660;9.126;2023-04-06T06:36:35;5.47;;;4.63;;
34403;SDS011;23116;47.660;9.126;2023-04-06T06:39:02;5.88;;;3.95;;
34403;SDS011;23116;47.660;9.126;2023-04-06T06:41:36;5.00;;;4.50;;
34403;SDS011;23116;47.660;9.126;2023-04-06T06:44:09;5.43;;;4.93;;
34403;SDS011;23116;47.660;9.126;2023-04-06T06:46:37;5.72;;;5.13;;
34403;SDS011;23116;47.660;9.126;2023-04-06T06:49:05;6.80;;;4.70;;
34403;SDS011;23116;47.660;9.126;2023-04-06T06:51:48;5.30;;;4.80;;
34403;SDS011;23116;47.660;9.126;2023-04-06T06:54:16;4.70;;;3.70;;
34403;SDS011;23116;47.660;9.126;2023-04-06T06:56:43;6.00;;;4.88;;
34403;SDS011;23116;47.660;9.126;2023-04-06T06:59:10;5.28;;;4.78;;
34403;SDS011;23116;47.660;9.126;2023-04-06T07:01:37;5.15;;;4.10;;
34403;SDS011;23116;47.660;9.126;2023-04-06T07:04:04;4.95;;;4.45;;
34403;SDS011;23116;47.660;9.126;2023-04-06T07:06:34;6.18;;;4.68;;
34403;SDS011;23116;47.660;9.126;2023-04-06T07:09:02;5.93;;;5.32;;
34403;SDS011;23116;47.660;9.126;2023-04-06T07:11:29;5.65;;;5.05;;
34403;SDS011;23116;47.660;9.126;2023-04-06T07:13:56;6.07;;;5.47;;
34403;SDS011;23116;47.660;9.126;2023-04-06T07:16:24;5.60;;;5.10;;
34403;SDS011;23116;47.660;9.126;2023-04-06T07:18:51;5.63;;;5.07;;
34403;SDS011;23116;47.660;9.126;2023-04-06T07:21:18;5.82;;;5.10;;
34403;SDS011;23116;47.660;9.126;2023-04-06T07:23:48;6.50;;;4.85;;
34403;SDS011;23116;47.660;9.126;2023-04-06T07:26:15;6.80;;;5.78;;
34403;SDS011;23116;47.660;9.126;2023-04-06T07:28:43;6.28;;;5.50;;
34403;SDS011;23116;47.660;9.126;2023-04-06T07:31:10;6.50;;;5.43;;
34403;SDS011;23116;47.660;9.126;2023-04-06T07:33:37;6.13;;;4.90;;
34403;SDS011;23116;47.660;9.126;2023-04-06T07:36:05;7.00;;;5.65;;
34403;SDS011;23116;47.660;9.126;2023-04-06T07:38:32;7.22;;;5.50;;
34403;SDS011;23116;47.660;9.126;2023-04-06T07:40:59;6.15;;;5.55;;
34403;SDS011;23116;47.660;9.126;2023-04-06T07:43:28;5.70;;;4.75;;
34403;SDS011;23116;47.660;9.126;2023-04-06T07:45:56;6.30;;;5.43;;
34403;SDS011;23116;47.660;9.126;2023-04-06T07:48:24;6.18;;;4.97;;
34403;SDS011;23116;47.660;9.126;2023-04-06T07:50:52;6.00;;;5.00;;
34403;SDS011;23116;47.660;9.126;2023-04-06T07:53:27;6.03;;;5.07;;
34403;SDS011;23116;47.660;9.126;2023-04-06T07:55:54;6.07;;;5.47;;
34403;SDS011;23116;47.660;9.126;2023-04-06T07:58:23;6.57;;;5.28;;
34403;SDS011;23116;47.660;9.126;2023-04-06T08:00:50;6.50;;;5.20;;
34403;SDS011;23116;47.660;9.126;2023-04-06T08:03:17;5.68;;;5.10;;
34403;SDS011;23116;47.660;9.126;2023-04-06T08:05:46;5.40;;;4.90;;
34403;SDS011;23116;47.660;9.126;2023-04-06T08:08:13;5.80;;;5.13;;
34403;SDS011;23116;47.660;9.126;2023-04-06T08:10:40;5.68;;;5.05;;
34403;SDS011;23116;47.660;9.126;2023-04-06T08:13:08;7.13;;;5.53;;
34403;SDS011;23116;47.660;9.126;2023-04-06T08:18:37;5.93;;;4.65;;
34403;SDS011;23116;47.660;9.126;2023-04-06T08:21:05;5.68;;;5.07;;
34403;SDS011;23116;47.660;9.126;2023-04-06T08:23:36;5.95;;;4.80;;
34403;SDS011;23116;47.660;9.126;2023-04-06T08:26:12;6.10;;;4.80;;
34403;SDS011;23116;47.660;9.126;2023-04-06T08:31:18;6.70;;;5.65;;
34403;SDS011;23116;47.660;9.126;2023-04-06T08:33:58;6.18;;;5.10;;
34403;SDS011;23116;47.660;9.126;2023-04-06T08:36:31;5.28;;;4.75;;
34403;SDS011;23116;47.660;9.126;2023-04-06T08:39:15;6.07;;;4.93;;
34403;SDS011;23116;47.660;9.126;2023-04-06T08:41:53;6.53;;;4.93;;
34403;SDS011;23116;47.660;9.126;2023-04-06T08:47:26;6.27;;;5.37;;
34403;SDS011;23116;47.660;9.126;2023-04-06T08:50:03;6.00;;;5.22;;
34403;SDS011;23116;47.660;9.126;2023-04-06T08:52:55;6.13;;;5.32;;
34403;SDS011;23116;47.660;9.126;2023-04-06T08:55:27;6.00;;;5.40;;
34403;SDS011;23116;47.660;9.126;2023-04-06T08:58:01;5.53;;;5.03;;
34403;SDS011;23116;47.660;9.126;2023-04-06T09:00:31;5.40;;;4.82;;
34403;SDS011;23116;47.660;9.126;2023-04-06T09:03:01;5.00;;;4.22;;
34403;SDS011;23116;47.660;9.126;2023-04-06T09:05:29;6.22;;;5.40;;
34403;SDS011;23116;47.660;9.126;2023-04-06T09:07:57;4.93;;;4.43;;
34403;SDS011;23116;47.660;9.126;2023-04-06T09:10:24;5.35;;;4.53;;
34403;SDS011;23116;47.660;9.126;2023-04-06T09:12:51;5.80;;;5.20;;
34403;SDS011;23116;47.660;9.126;2023-04-06T09:15:33;5.45;;;4.95;;
34403;SDS011;23116;47.660;9.126;2023-04-06T09:18:01;7.97;;;6.00;;
34403;SDS011;23116;47.660;9.126;2023-04-06T09:20:28;6.18;;;5.10;;
34403;SDS011;23116;47.660;9.126;2023-04-06T09:22:55;6.95;;;5.20;;
34403;SDS011;23116;47.660;9.126;2023-04-06T09:25:22;5.20;;;4.72;;
34403;SDS011;23116;47.660;9.126;2023-04-06T09:28:03;6.35;;;4.47;;
34403;SDS011;23116;47.660;9.126;2023-04-06T09:33:03;5.85;;;5.28;;
34403;SDS011;23116;47.660;9.126;2023-04-06T09:35:31;6.07;;;5.47;;
34403;SDS011;23116;47.660;9.126;2023-04-06T09:37:58;7.40;;;5.50;;
34403;SDS011;23116;47.660;9.126;2023-04-06T09:40:52;6.28;;;5.68;;
34403;SDS011;23116;47.660;9.126;2023-04-06T09:43:28;5.80;;;5.25;;
34403;SDS011;23116;47.660;9.126;2023-04-06T09:45:56;7.00;;;5.82;;
34403;SDS011;23116;47.660;9.126;2023-04-06T09:48:24;6.32;;;5.30;;
34403;SDS011;23116;47.660;9.126;2023-04-06T09:50:55;5.95;;;5.32;;
34403;SDS011;23116;47.660;9.126;2023-04-06T09:53:29;6.43;;;5.40;;
34403;SDS011;23116;47.660;9.126;2023-04-06T09:55:58;5.68;;;5.07;;
34403;SDS011;23116;47.660;9.126;2023-04-06T09:58:32;6.15;;;5.30;;
34403;SDS011;23116;47.660;9.126;2023-04-06T10:03:48;6.70;;;5.70;;
34403;SDS011;23116;47.660;9.126;2023-04-06T10:06:44;5.10;;;4.60;;
34403;SDS011;23116;47.660;9.126;2023-04-06T10:09:29;5.70;;;5.07;;
34403;SDS011;23116;47.660;9.126;2023-04-06T10:12:16;6.07;;;5.32;;
34403;SDS011;23116;47.660;9.126;2023-04-06T10:17:35;8.23;;;6.18;;
34403;SDS011;23116;47.660;9.126;2023-04-06T10:20:14;6.78;;;5.72;;
34403;SDS011;23116;47.660;9.126;2023-04-06T10:23:51;5.18;;;4.68;;
34403;SDS011;23116;47.660;9.126;2023-04-06T10:26:31;5.72;;;5.10;;
34403;SDS011;23116;47.660;9.126;2023-04-06T10:29:08;5.70;;;5.10;;
34403;SDS011;23116;47.660;9.126;2023-04-06T10:31:42;6.30;;;5.07;;
34403;SDS011;23116;47.660;9.126;2023-04-06T10:34:12;5.68;;;5.07;;
34403;SDS011;23116;47.660;9.126;2023-04-06T10:37:15;6.93;;;4.70;;
34403;SDS011;23116;47.660;9.126;2023-04-06T10:39:53;8.68;;;5.25;;
34403;SDS011;23116;47.660;9.126;2023-04-06T10:42:35;6.78;;;5.57;;
34403;SDS011;23116;47.660;9.126;2023-04-06T10:45:07;5.53;;;4.63;;
34403;SDS011;23116;47.660;9.126;2023-04-06T10:47:59;6.93;;;5.60;;
34403;SDS011;23116;47.660;9.126;2023-04-06T10:50:37;5.05;;;4.50;;
34403;SDS011;23116;47.660;9.126;2023-04-06T10:53:05;5.97;;;4.57;;
34403;SDS011;23116;47.660;9.126;2023-04-06T10:55:33;6.57;;;5.38;;
34403;SDS011;23116;47.660;9.126;2023-04-06T10:58:06;7.85;;;5.18;;
34403;SDS011;23116;47.660;9.126;2023-04-06T11:00:36;6.63;;;5.00;;
34403;SDS011;23116;47.660;9.126;2023-04-06T11:03:14;5.57;;;4.10;;
34403;SDS011;23116;47.660;9.126;2023-04-06T11:05:46;5.45;;;4.65;;
34403;SDS011;23116;47.660;9.126;2023-04-06T11:13:38;5.75;;;4.07;;
34403;SDS011;23116;47.660;9.126;2023-04-06T11:16:17;5.57;;;4.20;;
34403;SDS011;23116;47.660;9.126;2023-04-06T11:18:48;4.72;;;4.20;;
34403;SDS011;23116;47.660;9.126;2023-04-06T11:21:41;5.78;;;4.55;;
34403;SDS011;23116;47.660;9.126;2023-04-06T11:24:17;6.60;;;4.53;;
34403;SDS011;23116;47.660;9.126;2023-04-06T11:26:49;5.38;;;4.50;;
34403;SDS011;23116;47.660;9.126;2023-04-06T11:29:22;6.65;;;5.50;;
34403;SDS011;23116;47.660;9.126;2023-04-06T11:32:02;5.10;;;4.05;;
34403;SDS011;23116;47.660;9.126;2023-04-06T11:34:38;4.85;;;4.35;;
34403;SDS011;23116;47.660;9.126;2023-04-06T11:37:09;4.07;;;3.55;;
34403;SDS011;23116;47.660;9.126;2023-04-06T11:39:38;4.10;;;3.42;;
34403;SDS011;23116;47.660;9.126;2023-04-06T11:45:00;3.85;;;3.20;;
34403;SDS011;23116;47.660;9.126;2023-04-06T11:47:29;5.35;;;4.30;;
34403;SDS011;23116;47.660;9.126;2023-04-06T11:50:08;4.93;;;4.20;;
34403;SDS011;23116;47.660;9.126;2023-04-06T11:52:40;4.93;;;3.80;;
34403;SDS011;23116;47.660;9.126;2023-04-06T11:55:17;4.10;;;3.53;;
34403;SDS011;23116;47.660;9.126;2023-04-06T11:57:45;4.13;;;3.60;;
34403;SDS011;23116;47.660;9.126;2023-04-06T12:00:14;3.65;;;3.35;;
34403;SDS011;23116;47.660;9.126;2023-04-06T12:02:45;4.43;;;3.80;;
34403;SDS011;23116;47.660;9.126;2023-04-06T12:05:15;5.35;;;3.67;;
34403;SDS011;23116;47.660;9.126;2023-04-06T12:07:43;3.90;;;3.38;;
34403;SDS011;23116;47.660;9.126;2023-04-06T12:10:11;3.80;;;3.40;;
34403;SDS011;23116;47.660;9.126;2023-04-06T12:12:38;5.15;;;4.07;;
34403;SDS011;23116;47.660;9.126;2023-04-06T12:15:05;5.07;;;3.40;;
34403;SDS011;23116;47.660;9.126;2023-04-06T12:17:36;6.25;;;4.10;;
34403;SDS011;23116;47.660;9.126;2023-04-06T12:20:10;3.28;;;2.97;;
34403;SDS011;23116;47.660;9.126;2023-04-06T12:22:47;4.97;;;3.83;;
34403;SDS011;23116;47.660;9.126;2023-04-06T12:25:21;3.63;;;3.25;;
34403;SDS011;23116;47.660;9.126;2023-04-06T12:28:00;3.75;;;2.83;;
34403;SDS011;23116;47.660;9.126;2023-04-06T12:30:40;3.67;;;3.28;;
34403;SDS011;23116;47.660;9.126;2023-04-06T12:33:10;4.28;;;3.25;;
34403;SDS011;23116;47.660;9.126;2023-04-06T12:38:50;3.00;;;2.65;;
34403;SDS011;23116;47.660;9.126;2023-04-06T12:41:36;3.45;;;2.60;;
34403;SDS011;23116;47.660;9.126;2023-04-06T12:44:06;2.65;;;2.35;;
34403;SDS011;23116;47.660;9.126;2023-04-06T12:46:33;9.00;;;4.25;;
34403;SDS011;23116;47.660;9.126;2023-04-06T12:49:01;4.25;;;3.35;;
34403;SDS011;23116;47.660;9.126;2023-04-06T12:51:32;5.75;;;4.03;;
34403;SDS011;23116;47.660;9.126;2023-04-06T12:54:11;4.32;;;3.40;;
34403;SDS011;23116;47.660;9.126;2023-04-06T12:56:56;4.10;;;3.03;;
34403;SDS011;23116;47.660;9.126;2023-04-06T12:59:36;3.20;;;2.88;;
34403;SDS011;23116;47.660;9.126;2023-04-06T13:02:10;2.83;;;2.38;;
34403;SDS011;23116;47.660;9.126;2023-04-06T13:04:37;2.80;;;2.28;;
34403;SDS011;23116;47.660;9.126;2023-04-06T13:07:05;4.97;;;3.53;;
34403;SDS011;23116;47.660;9.126;2023-04-06T13:09:32;3.00;;;2.70;;
34403;SDS011;23116;47.660;9.126;2023-04-06T13:11:59;3.00;;;2.70;;
34403;SDS011;23116;47.660;9.126;2023-04-06T13:14:27;3.47;;;2.70;;
34403;SDS011;23116;47.660;9.126;2023-04-06T13:16:54;3.03;;;2.72;;
34403;SDS011;23116;47.660;9.126;2023-04-06T13:19:22;2.67;;;2.40;;
34403;SDS011;23116;47.660;9.126;2023-04-06T13:21:50;2.63;;;2.42;;
34403;SDS011;23116;47.660;9.126;2023-04-06T13:24:18;2.72;;;2.50;;
34403;SDS011;23116;47.660;9.126;2023-04-06T13:26:46;2.88;;;2.63;;
34403;SDS011;23116;47.660;9.126;2023-04-06T13:29:14;4.03;;;3.28;;
34403;SDS011;23116;47.660;9.126;2023-04-06T13:31:41;4.30;;;3.55;;
34403;SDS011;23116;47.660;9.126;2023-04-06T13:34:08;4.28;;;3.70;;
34403;SDS011;23116;47.660;9.126;2023-04-06T13:36:35;4.00;;;3.22;;
34403;SDS011;23116;47.660;9.126;2023-04-06T13:39:05;3.70;;;3.40;;
34403;SDS011;23116;47.660;9.126;2023-04-06T13:41:32;5.90;;;4.25;;
34403;SDS011;23116;47.660;9.126;2023-04-06T13:44:00;3.58;;;3.00;;
34403;SDS011;23116;47.660;9.126;2023-04-06T13:46:27;3.15;;;2.85;;
34403;SDS011;23116;47.660;9.126;2023-04-06T13:48:54;4.47;;;3.33;;
34403;SDS011;23116;47.660;9.126;2023-04-06T13:51:21;3.55;;;3.25;;
34403;SDS011;23116;47.660;9.126;2023-04-06T13:53:48;4.07;;;3.20;;
34403;SDS011;23116;47.660;9.126;2023-04-06T13:56:17;4.50;;;3.60;;
34403;SDS011;23116;47.660;9.126;2023-04-06T13:58:47;3.97;;;3.58;;
34403;SDS011;23116;47.660;9.126;2023-04-06T14:01:14;3.50;;;2.97;;
34403;SDS011;23116;47.660;9.126;2023-04-06T14:03:41;3.67;;;3.17;;
34403;SDS011;23116;47.660;9.126;2023-04-06T14:06:12;3.20;;;2.58;;
34403;SDS011;23116;47.660;9.126;2023-04-06T14:08:40;3.78;;;2.95;;
34403;SDS011;23116;47.660;9.126;2023-04-06T14:11:10;4.75;;;3.22;;
34403;SDS011;23116;47.660;9.126;2023-04-06T14:13:39;3.20;;;2.90;;
34403;SDS011;23116;47.660;9.126;2023-04-06T14:16:06;3.28;;;2.70;;
34403;SDS011;23116;47.660;9.126;2023-04-06T14:18:34;3.53;;;2.75;;
34403;SDS011;23116;47.660;9.126;2023-04-06T14:21:01;2.60;;;2.40;;
34403;SDS011;23116;47.660;9.126;2023-04-06T14:23:29;2.45;;;2.25;;
34403;SDS011;23116;47.660;9.126;2023-04-06T14:26:09;2.63;;;2.33;;
34403;SDS011;23116;47.660;9.126;2023-04-06T14:28:36;3.70;;;2.38;;
34403;SDS011;23116;47.660;9.126;2023-04-06T14:31:09;2.47;;;2.28;;
34403;SDS011;23116;47.660;9.126;2023-04-06T14:33:38;2.85;;;2.45;;
34403;SDS011;23116;47.660;9.126;2023-04-06T14:36:06;2.90;;;2.35;;
34403;SDS011;23116;47.660;9.126;2023-04-06T14:38:34;2.83;;;2.40;;
34403;SDS011;23116;47.660;9.126;2023-04-06T14:41:02;3.10;;;2.80;;
34403;SDS011;23116;47.660;9.126;2023-04-06T14:43:29;5.07;;;3.20;;
34403;SDS011;23116;47.660;9.126;2023-04-06T14:45:59;3.55;;;2.97;;
34403;SDS011;23116;47.660;9.126;2023-04-06T14:48:27;3.30;;;2.88;;
34403;SDS011;23116;47.660;9.126;2023-04-06T14:50:55;4.75;;;3.38;;
34403;SDS011;23116;47.660;9.126;2023-04-06T14:53:22;3.33;;;2.95;;
34403;SDS011;23116;47.660;9.126;2023-04-06T14:55:50;3.15;;;2.85;;
34403;SDS011;23116;47.660;9.126;2023-04-06T14:58:18;3.40;;;3.08;;
34403;SDS011;23116;47.660;9.126;2023-04-06T15:00:46;3.35;;;2.95;;
34403;SDS011;23116;47.660;9.126;2023-04-06T15:03:13;3.45;;;2.92;;
34403;SDS011;23116;47.660;9.126;2023-04-06T15:05:41;4.97;;;3.22;;
34403;SDS011;23116;47.660;9.126;2023-04-06T15:08:09;3.00;;;2.80;;
34403;SDS011;23116;47.660;9.126;2023-04-06T15:10:36;3.38;;;3.00;;
34403;SDS011;23116;47.660;9.126;2023-04-06T15:13:04;3.38;;;2.95;;
34403;SDS011;23116;47.660;9.126;2023-04-06T15:15:31;3.17;;;2.88;;
34403;SDS011;23116;47.660;9.126;2023-04-06T15:17:58;2.78;;;2.58;;
34403;SDS011;23116;47.660;9.126;2023-04-06T15:20:27;3.13;;;2.75;;
34403;SDS011;23116;47.660;9.126;2023-04-06T15:22:55;3.28;;;2.63;;
34403;SDS011;23116;47.660;9.126;2023-04-06T15:25:22;3.45;;;3.15;;
34403;SDS011;23116;47.660;9.126;2023-04-06T15:27:50;3.22;;;2.88;;
34403;SDS011;23116;47.660;9.126;2023-04-06T15:30:17;2.95;;;2.65;;
34403;SDS011;23116;47.660;9.126;2023-04-06T15:32:55;2.08;;;1.88;;
34403;SDS011;23116;47.660;9.126;2023-04-06T15:35:28;2.20;;;2.00;;
34403;SDS011;23116;47.660;9.126;2023-04-06T15:37:56;1.63;;;1.52;;
34403;SDS011;23116;47.660;9.126;2023-04-06T15:40:24;3.05;;;2.10;;
34403;SDS011;23116;47.660;9.126;2023-04-06T15:42:51;2.75;;;2.47;;
34403;SDS011;23116;47.660;9.126;2023-04-06T15:45:18;3.30;;;2.42;;
34403;SDS011;23116;47.660;9.126;2023-04-06T15:47:48;2.88;;;2.28;;
34403;SDS011;23116;47.660;9.126;2023-04-06T15:50:15;4.00;;;2.55;;
34403;SDS011;23116;47.660;9.126;2023-04-06T15:52:43;2.42;;;2.22;;
34403;SDS011;23116;47.660;9.126;2023-04-06T15:55:11;3.35;;;2.53;;
34403;SDS011;23116;47.660;9.126;2023-04-06T15:57:38;2.60;;;2.20;;
34403;SDS011;23116;47.660;9.126;2023-04-06T16:00:05;2.53;;;2.33;;
34403;SDS011;23116;47.660;9.126;2023-04-06T16:02:34;3.83;;;2.72;;
34403;SDS011;23116;47.660;9.126;2023-04-06T16:05:01;3.70;;;2.60;;
34403;SDS011;23116;47.660;9.126;2023-04-06T16:07:29;2.72;;;2.53;;
34403;SDS011;23116;47.660;9.126;2023-04-06T16:09:57;2.90;;;2.60;;
34403;SDS011;23116;47.660;9.126;2023-04-06T16:12:24;2.50;;;2.30;;
34403;SDS011;23116;47.660;9.126;2023-04-06T16:14:51;2.28;;;2.08;;
34403;SDS011;23116;47.660;9.126;2023-04-06T16:17:19;3.08;;;2.78;;
34403;SDS011;23116;47.660;9.126;2023-04-06T16:19:46;3.72;;;3.08;;
34403;SDS011;23116;47.660;9.126;2023-04-06T16:22:14;2.80;;;2.35;;
34403;SDS011;23116;47.660;9.126;2023-04-06T16:24:41;3.03;;;2.60;;
34403;SDS011;23116;47.660;9.126;2023-04-06T16:27:08;4.05;;;2.88;;